sensor_id;sensor_type;location;lat;lon;timestamp;temperature;humidity
9446;DHT22;4761;49.490;10.908;2023-02-26T00:01:37;16.60;43.30
9446;DHT22;4761;49.490;10.908;2023-02-26T00:04:04;16.60;43.30
9446;DHT22;4761;49.490;10.908;2023-02-26T00:06:35;16.60;43.20
9446;DHT22;4761;49.490;10.908;2023-02-26T00:09:03;16.60;43.20
9446;DHT22;4761;49.490;10.908;2023-02-26T00:11:29;16.50;43.10
9446;DHT22;4761;49.490;10.908;2023-02-26T00:13:55;16.50;43.10
9446;DHT22;4761;49.490;10.908;2023-02-26T00:16:31;16.50;43.10
9446;DHT22;4761;49.490;10.908;2023-02-26T00:18:58;16.50;43.10
9446;DHT22;4761;49.490;10.908;2023-02-26T00:21:25;16.50;43.10
9446;DHT22;4761;49.490;10.908;2023-02-26T00:23:52;16.50;43.10
9446;DHT22;4761;49.490;10.908;2023-02-26T00:26:18;16.50;43.10
9446;DHT22;4761;49.490;10.908;2023-02-26T00:28:45;16.50;43.00
9446;DHT22;4761;49.490;10.908;2023-02-26T00:31:10;16.50;43.00
9446;DHT22;4761;49.490;10.908;2023-02-26T00:33:38;16.50;42.90
9446;DHT22;4761;49.490;10.908;2023-02-26T00:41:38;16.40;42.90
9446;DHT22;4761;49.490;10.908;2023-02-26T00:44:04;16.40;43.50
9446;DHT22;4761;49.490;10.908;2023-02-26T00:47:03;16.40;42.90
9446;DHT22;4761;49.490;10.908;2023-02-26T00:52:15;16.50;42.90
9446;DHT22;4761;49.490;10.908;2023-02-26T00:54:44;16.40;42.60
9446;DHT22;4761;49.490;10.908;2023-02-26T00:57:10;16.40;42.70
9446;DHT22;4761;49.490;10.908;2023-02-26T00:59:35;16.40;42.70
9446;DHT22;4761;49.490;10.908;2023-02-26T01:02:00;16.40;42.70
9446;DHT22;4761;49.490;10.908;2023-02-26T01:04:26;16.40;42.70
9446;DHT22;4761;49.490;10.908;2023-02-26T01:06:54;16.40;42.70
9446;DHT22;4761;49.490;10.908;2023-02-26T01:09:33;16.40;42.70
9446;DHT22;4761;49.490;10.908;2023-02-26T01:12:05;16.40;42.60
9446;DHT22;4761;49.490;10.908;2023-02-26T01:14:31;16.40;42.50
9446;DHT22;4761;49.490;10.908;2023-02-26T01:17:22;16.40;42.40
9446;DHT22;4761;49.490;10.908;2023-02-26T01:20:21;16.40;42.40
9446;DHT22;4761;49.490;10.908;2023-02-26T01:22:58;16.40;42.40
9446;DHT22;4761;49.490;10.908;2023-02-26T01:25:34;16.40;42.30
9446;DHT22;4761;49.490;10.908;2023-02-26T01:28:01;16.40;42.30
9446;DHT22;4761;49.490;10.908;2023-02-26T01:30:27;16.40;42.40
9446;DHT22;4761;49.490;10.908;2023-02-26T01:44:18;16.40;42.10
9446;DHT22;4761;49.490;10.908;2023-02-26T01:47:05;16.40;41.90
9446;DHT22;4761;49.490;10.908;2023-02-26T01:49:35;16.50;41.90
9446;DHT22;4761;49.490;10.908;2023-02-26T01:52:02;16.50;41.80
9446;DHT22;4761;49.490;10.908;2023-02-26T01:54:33;16.50;41.80
9446;DHT22;4761;49.490;10.908;2023-02-26T01:57:11;16.50;41.70
9446;DHT22;4761;49.490;10.908;2023-02-26T01:59:43;16.60;41.70
9446;DHT22;4761;49.490;10.908;2023-02-26T02:02:11;16.60;41.70
9446;DHT22;4761;49.490;10.908;2023-02-26T02:04:38;16.60;41.60
9446;DHT22;4761;49.490;10.908;2023-02-26T02:07:05;16.60;41.50
9446;DHT22;4761;49.490;10.908;2023-02-26T02:09:31;16.50;41.30
9446;DHT22;4761;49.490;10.908;2023-02-26T02:12:12;16.60;41.10
9446;DHT22;4761;49.490;10.908;2023-02-26T02:18:16;16.60;41.10
9446;DHT22;4761;49.490;10.908;2023-02-26T02:23:52;16.60;41.00
9446;DHT22;4761;49.490;10.908;2023-02-26T02:26:49;16.60;41.10
9446;DHT22;4761;49.490;10.908;2023-02-26T02:32:19;16.50;40.90
9446;DHT22;4761;49.490;10.908;2023-02-26T02:34:59;16.50;41.10
9446;DHT22;4761;49.490;10.908;2023-02-26T02:37:54;16.50;41.10
9446;DHT22;4761;49.490;10.908;2023-02-26T02:40:25;16.50;40.90
9446;DHT22;4761;49.490;10.908;2023-02-26T02:43:03;16.50;41.00
9446;DHT22;4761;49.490;10.908;2023-02-26T02:48:39;16.50;40.90
9446;DHT22;4761;49.490;10.908;2023-02-26T02:51:14;16.40;41.00
9446;DHT22;4761;49.490;10.908;2023-02-26T02:54:03;16.40;40.80
9446;DHT22;4761;49.490;10.908;2023-02-26T02:56:46;16.40;40.90
9446;DHT22;4761;49.490;10.908;2023-02-26T03:01:49;16.40;40.80
9446;DHT22;4761;49.490;10.908;2023-02-26T03:04:16;16.40;40.90
9446;DHT22;4761;49.490;10.908;2023-02-26T03:06:42;16.50;40.90
9446;DHT22;4761;49.490;10.908;2023-02-26T03:09:09;16.40;40.80
9446;DHT22;4761;49.490;10.908;2023-02-26T03:11:35;16.40;40.80
9446;DHT22;4761;49.490;10.908;2023-02-26T03:14:01;16.40;40.80
9446;DHT22;4761;49.490;10.908;2023-02-26T03:16:51;16.40;40.90
9446;DHT22;4761;49.490;10.908;2023-02-26T03:24:37;16.40;40.90
9446;DHT22;4761;49.490;10.908;2023-02-26T03:29:59;16.40;40.80
9446;DHT22;4761;49.490;10.908;2023-02-26T03:35:03;16.40;40.80
9446;DHT22;4761;49.490;10.908;2023-02-26T03:37:38;16.40;40.80
9446;DHT22;4761;49.490;10.908;2023-02-26T03:40:09;16.40;40.80
9446;DHT22;4761;49.490;10.908;2023-02-26T03:42:54;16.40;40.70
9446;DHT22;4761;49.490;10.908;2023-02-26T03:45:28;16.30;40.70
9446;DHT22;4761;49.490;10.908;2023-02-26T03:47:54;16.40;40.70
9446;DHT22;4761;49.490;10.908;2023-02-26T03:50:41;16.40;40.70
9446;DHT22;4761;49.490;10.908;2023-02-26T03:53:11;16.40;40.70
9446;DHT22;4761;49.490;10.908;2023-02-26T03:55:45;16.40;40.70
9446;DHT22;4761;49.490;10.908;2023-02-26T03:58:13;16.30;40.70
9446;DHT22;4761;49.490;10.908;2023-02-26T04:00:41;16.30;40.60
9446;DHT22;4761;49.490;10.908;2023-02-26T04:03:25;16.40;40.70
9446;DHT22;4761;49.490;10.908;2023-02-26T04:05:53;16.30;40.70
9446;DHT22;4761;49.490;10.908;2023-02-26T04:08:21;16.40;40.80
9446;DHT22;4761;49.490;10.908;2023-02-26T04:10:56;16.30;40.60
9446;DHT22;4761;49.490;10.908;2023-02-26T04:13:23;16.40;40.60
9446;DHT22;4761;49.490;10.908;2023-02-26T04:15:48;16.40;40.70
9446;DHT22;4761;49.490;10.908;2023-02-26T04:18:14;16.30;40.50
9446;DHT22;4761;49.490;10.908;2023-02-26T04:20:40;16.40;40.60
9446;DHT22;4761;49.490;10.908;2023-02-26T04:23:05;16.30;41.10
9446;DHT22;4761;49.490;10.908;2023-02-26T04:25:31;16.40;40.50
9446;DHT22;4761;49.490;10.908;2023-02-26T04:27:56;16.40;40.50
9446;DHT22;4761;49.490;10.908;2023-02-26T04:30:22;16.40;40.60
9446;DHT22;4761;49.490;10.908;2023-02-26T04:32:47;16.40;40.50
9446;DHT22;4761;49.490;10.908;2023-02-26T04:35:13;16.40;40.50
9446;DHT22;4761;49.490;10.908;2023-02-26T04:37:38;16.40;40.40
9446;DHT22;4761;49.490;10.908;2023-02-26T04:40:04;16.30;40.40
9446;DHT22;4761;49.490;10.908;2023-02-26T04:42:30;16.40;40.50
9446;DHT22;4761;49.490;10.908;2023-02-26T04:44:56;16.40;40.60
9446;DHT22;4761;49.490;10.908;2023-02-26T04:47:21;16.30;40.40
9446;DHT22;4761;49.490;10.908;2023-02-26T04:49:47;16.40;40.60
9446;DHT22;4761;49.490;10.908;2023-02-26T04:52:12;16.40;40.60
9446;DHT22;4761;49.490;10.908;2023-02-26T04:54:38;16.40;40.40
9446;DHT22;4761;49.490;10.908;2023-02-26T04:57:04;16.40;40.40
9446;DHT22;4761;49.490;10.908;2023-02-26T04:59:30;16.30;40.40
9446;DHT22;4761;49.490;10.908;2023-02-26T05:01:55;16.40;40.50
9446;DHT22;4761;49.490;10.908;2023-02-26T05:04:21;16.30;40.50
9446;DHT22;4761;49.490;10.908;2023-02-26T05:06:47;16.40;40.50
9446;DHT22;4761;49.490;10.908;2023-02-26T05:09:12;16.40;40.40
9446;DHT22;4761;49.490;10.908;2023-02-26T05:11:38;16.40;40.40
9446;DHT22;4761;49.490;10.908;2023-02-26T05:14:03;16.40;40.40
9446;DHT22;4761;49.490;10.908;2023-02-26T05:16:29;16.40;40.40
9446;DHT22;4761;49.490;10.908;2023-02-26T05:18:54;16.30;40.40
9446;DHT22;4761;49.490;10.908;2023-02-26T05:21:20;16.30;40.40
9446;DHT22;4761;49.490;10.908;2023-02-26T05:23:46;16.30;40.40
9446;DHT22;4761;49.490;10.908;2023-02-26T05:26:11;16.30;40.20
9446;DHT22;4761;49.490;10.908;2023-02-26T05:28:37;16.30;40.40
9446;DHT22;4761;49.490;10.908;2023-02-26T05:31:03;16.30;40.40
9446;DHT22;4761;49.490;10.908;2023-02-26T05:33:28;16.30;40.50
9446;DHT22;4761;49.490;10.908;2023-02-26T05:35:54;16.30;40.40
9446;DHT22;4761;49.490;10.908;2023-02-26T05:38:19;16.40;40.50
9446;DHT22;4761;49.490;10.908;2023-02-26T05:40:45;16.30;40.40
9446;DHT22;4761;49.490;10.908;2023-02-26T05:43:11;16.30;40.30
9446;DHT22;4761;49.490;10.908;2023-02-26T05:45:36;16.30;40.40
9446;DHT22;4761;49.490;10.908;2023-02-26T05:48:02;16.30;40.30
9446;DHT22;4761;49.490;10.908;2023-02-26T05:50:27;16.30;40.40
9446;DHT22;4761;49.490;10.908;2023-02-26T05:52:54;16.30;40.40
9446;DHT22;4761;49.490;10.908;2023-02-26T05:55:20;16.40;40.40
9446;DHT22;4761;49.490;10.908;2023-02-26T05:57:45;16.40;40.40
9446;DHT22;4761;49.490;10.908;2023-02-26T06:00:11;16.40;40.30
9446;DHT22;4761;49.490;10.908;2023-02-26T06:02:37;16.50;40.30
9446;DHT22;4761;49.490;10.908;2023-02-26T06:05:03;16.40;40.20
9446;DHT22;4761;49.490;10.908;2023-02-26T06:07:29;16.50;40.20
9446;DHT22;4761;49.490;10.908;2023-02-26T06:09:55;16.50;40.10
9446;DHT22;4761;49.490;10.908;2023-02-26T06:12:20;16.50;40.10
9446;DHT22;4761;49.490;10.908;2023-02-26T06:14:46;16.50;40.10
9446;DHT22;4761;49.490;10.908;2023-02-26T06:17:11;16.50;40.00
9446;DHT22;4761;49.490;10.908;2023-02-26T06:19:37;16.50;40.10
9446;DHT22;4761;49.490;10.908;2023-02-26T06:22:02;16.50;40.10
9446;DHT22;4761;49.490;10.908;2023-02-26T06:24:28;16.50;40.00
9446;DHT22;4761;49.490;10.908;2023-02-26T06:26:53;16.50;40.20
9446;DHT22;4761;49.490;10.908;2023-02-26T06:29:19;16.50;40.10
9446;DHT22;4761;49.490;10.908;2023-02-26T06:31:45;16.50;40.10
9446;DHT22;4761;49.490;10.908;2023-02-26T06:34:11;16.50;40.20
9446;DHT22;4761;49.490;10.908;2023-02-26T06:36:37;16.50;40.20
9446;DHT22;4761;49.490;10.908;2023-02-26T06:39:03;16.50;40.10
9446;DHT22;4761;49.490;10.908;2023-02-26T06:41:28;16.50;40.20
9446;DHT22;4761;49.490;10.908;2023-02-26T06:43:54;16.50;40.20
9446;DHT22;4761;49.490;10.908;2023-02-26T06:46:19;16.50;40.20
9446;DHT22;4761;49.490;10.908;2023-02-26T06:48:45;16.50;40.20
9446;DHT22;4761;49.490;10.908;2023-02-26T06:51:11;16.40;40.30
9446;DHT22;4761;49.490;10.908;2023-02-26T06:53:36;16.40;40.40
9446;DHT22;4761;49.490;10.908;2023-02-26T06:56:02;16.40;40.40
9446;DHT22;4761;49.490;10.908;2023-02-26T06:58:28;16.40;40.50
9446;DHT22;4761;49.490;10.908;2023-02-26T07:00:53;16.40;40.50
9446;DHT22;4761;49.490;10.908;2023-02-26T07:03:19;16.40;40.60
9446;DHT22;4761;49.490;10.908;2023-02-26T07:05:45;16.40;40.50
9446;DHT22;4761;49.490;10.908;2023-02-26T07:08:11;16.40;40.60
9446;DHT22;4761;49.490;10.908;2023-02-26T07:10:38;16.40;40.50
9446;DHT22;4761;49.490;10.908;2023-02-26T07:13:04;16.40;36.80
9446;DHT22;4761;49.490;10.908;2023-02-26T07:15:30;16.30;31.20
9446;DHT22;4761;49.490;10.908;2023-02-26T07:17:55;16.20;30.00
9446;DHT22;4761;49.490;10.908;2023-02-26T07:20:21;16.10;30.00
9446;DHT22;4761;49.490;10.908;2023-02-26T07:22:47;16.10;29.90
9446;DHT22;4761;49.490;10.908;2023-02-26T07:25:13;16.10;29.70
9446;DHT22;4761;49.490;10.908;2023-02-26T07:27:39;16.10;29.50
9446;DHT22;4761;49.490;10.908;2023-02-26T07:30:06;16.20;29.30
9446;DHT22;4761;49.490;10.908;2023-02-26T07:32:32;16.30;29.00
9446;DHT22;4761;49.490;10.908;2023-02-26T07:34:58;16.40;29.40
9446;DHT22;4761;49.490;10.908;2023-02-26T07:37:23;16.50;28.80
9446;DHT22;4761;49.490;10.908;2023-02-26T07:39:49;16.50;28.50
9446;DHT22;4761;49.490;10.908;2023-02-26T07:42:15;16.60;28.30
9446;DHT22;4761;49.490;10.908;2023-02-26T07:44:41;16.70;28.10
9446;DHT22;4761;49.490;10.908;2023-02-26T07:47:07;16.80;28.00
9446;DHT22;4761;49.490;10.908;2023-02-26T07:49:32;16.90;27.90
9446;DHT22;4761;49.490;10.908;2023-02-26T07:51:58;16.90;27.60
9446;DHT22;4761;49.490;10.908;2023-02-26T07:54:24;16.90;27.50
9446;DHT22;4761;49.490;10.908;2023-02-26T07:56:50;16.90;27.50
9446;DHT22;4761;49.490;10.908;2023-02-26T07:59:15;17.00;27.40
9446;DHT22;4761;49.490;10.908;2023-02-26T08:01:41;17.10;27.50
9446;DHT22;4761;49.490;10.908;2023-02-26T08:04:06;17.10;27.50
9446;DHT22;4761;49.490;10.908;2023-02-26T08:06:32;17.20;27.50
9446;DHT22;4761;49.490;10.908;2023-02-26T08:08:57;17.20;27.60
9446;DHT22;4761;49.490;10.908;2023-02-26T08:11:23;17.20;27.70
9446;DHT22;4761;49.490;10.908;2023-02-26T08:13:48;17.20;27.70
9446;DHT22;4761;49.490;10.908;2023-02-26T08:16:14;17.30;27.90
9446;DHT22;4761;49.490;10.908;2023-02-26T08:18:39;17.30;27.90
9446;DHT22;4761;49.490;10.908;2023-02-26T08:21:06;17.30;28.00
9446;DHT22;4761;49.490;10.908;2023-02-26T08:23:31;17.40;28.50
9446;DHT22;4761;49.490;10.908;2023-02-26T08:26:04;17.40;28.20
9446;DHT22;4761;49.490;10.908;2023-02-26T08:28:31;17.40;28.20
9446;DHT22;4761;49.490;10.908;2023-02-26T08:30:58;17.40;28.20
9446;DHT22;4761;49.490;10.908;2023-02-26T08:33:24;17.40;28.20
9446;DHT22;4761;49.490;10.908;2023-02-26T08:35:50;17.40;28.10
9446;DHT22;4761;49.490;10.908;2023-02-26T08:38:15;17.50;28.10
9446;DHT22;4761;49.490;10.908;2023-02-26T08:40:41;17.50;28.50
9446;DHT22;4761;49.490;10.908;2023-02-26T08:43:07;17.50;28.00
9446;DHT22;4761;49.490;10.908;2023-02-26T08:45:32;17.50;28.00
9446;DHT22;4761;49.490;10.908;2023-02-26T08:47:58;17.50;27.90
9446;DHT22;4761;49.490;10.908;2023-02-26T08:50:25;17.50;27.80
9446;DHT22;4761;49.490;10.908;2023-02-26T08:52:50;17.50;27.80
9446;DHT22;4761;49.490;10.908;2023-02-26T08:55:16;17.50;27.70
9446;DHT22;4761;49.490;10.908;2023-02-26T08:57:42;17.50;27.60
9446;DHT22;4761;49.490;10.908;2023-02-26T09:00:08;17.60;27.60
9446;DHT22;4761;49.490;10.908;2023-02-26T09:02:35;17.50;27.40
9446;DHT22;4761;49.490;10.908;2023-02-26T09:05:01;17.70;38.40
9446;DHT22;4761;49.490;10.908;2023-02-26T09:07:26;17.70;39.00
9446;DHT22;4761;49.490;10.908;2023-02-26T09:09:52;17.60;39.30
9446;DHT22;4761;49.490;10.908;2023-02-26T09:12:17;17.50;39.60
9446;DHT22;4761;49.490;10.908;2023-02-26T09:14:43;17.30;39.80
9446;DHT22;4761;49.490;10.908;2023-02-26T09:17:08;17.20;40.10
9446;DHT22;4761;49.490;10.908;2023-02-26T09:19:34;17.10;40.30
9446;DHT22;4761;49.490;10.908;2023-02-26T09:21:59;17.00;40.40
9446;DHT22;4761;49.490;10.908;2023-02-26T09:24:25;16.90;40.60
9446;DHT22;4761;49.490;10.908;2023-02-26T09:26:50;16.90;40.70
9446;DHT22;4761;49.490;10.908;2023-02-26T09:29:16;16.80;40.90
9446;DHT22;4761;49.490;10.908;2023-02-26T09:31:42;16.70;40.90
9446;DHT22;4761;49.490;10.908;2023-02-26T09:34:07;16.70;41.00
9446;DHT22;4761;49.490;10.908;2023-02-26T09:36:33;16.70;41.00
9446;DHT22;4761;49.490;10.908;2023-02-26T09:38:59;16.70;41.00
9446;DHT22;4761;49.490;10.908;2023-02-26T09:41:31;16.60;41.00
9446;DHT22;4761;49.490;10.908;2023-02-26T09:49:18;16.50;40.90
9446;DHT22;4761;49.490;10.908;2023-02-26T09:51:46;16.50;40.90
9446;DHT22;4761;49.490;10.908;2023-02-26T09:54:23;16.50;40.90
9446;DHT22;4761;49.490;10.908;2023-02-26T09:56:51;16.50;40.80
9446;DHT22;4761;49.490;10.908;2023-02-26T09:59:17;16.50;40.90
9446;DHT22;4761;49.490;10.908;2023-02-26T10:09:57;16.60;40.60
9446;DHT22;4761;49.490;10.908;2023-02-26T10:12:27;16.70;40.50
9446;DHT22;4761;49.490;10.908;2023-02-26T10:17:32;16.70;40.30
9446;DHT22;4761;49.490;10.908;2023-02-26T10:20:08;16.70;40.10
9446;DHT22;4761;49.490;10.908;2023-02-26T10:25:24;16.70;40.00
9446;DHT22;4761;49.490;10.908;2023-02-26T10:28:01;16.70;40.00
9446;DHT22;4761;49.490;10.908;2023-02-26T10:30:40;16.60;39.90
9446;DHT22;4761;49.490;10.908;2023-02-26T10:33:24;16.60;39.90
9446;DHT22;4761;49.490;10.908;2023-02-26T10:35:53;16.60;40.00
9446;DHT22;4761;49.490;10.908;2023-02-26T10:38:24;16.60;40.00
9446;DHT22;4761;49.490;10.908;2023-02-26T10:40:59;16.70;40.00
9446;DHT22;4761;49.490;10.908;2023-02-26T10:43:42;16.60;39.90
9446;DHT22;4761;49.490;10.908;2023-02-26T10:51:48;16.60;39.80
9446;DHT22;4761;49.490;10.908;2023-02-26T10:54:38;16.60;39.90
9446;DHT22;4761;49.490;10.908;2023-02-26T10:57:13;16.60;39.90
9446;DHT22;4761;49.490;10.908;2023-02-26T10:59:41;16.60;39.80
9446;DHT22;4761;49.490;10.908;2023-02-26T11:02:25;16.60;39.80
9446;DHT22;4761;49.490;10.908;2023-02-26T11:04:53;16.60;39.60
9446;DHT22;4761;49.490;10.908;2023-02-26T11:07:19;16.60;39.60
9446;DHT22;4761;49.490;10.908;2023-02-26T11:09:45;16.60;40.00
9446;DHT22;4761;49.490;10.908;2023-02-26T11:14:46;16.50;39.90
9446;DHT22;4761;49.490;10.908;2023-02-26T11:17:20;16.60;39.90
9446;DHT22;4761;49.490;10.908;2023-02-26T11:20:11;16.50;39.80
9446;DHT22;4761;49.490;10.908;2023-02-26T11:22:46;16.50;39.70
9446;DHT22;4761;49.490;10.908;2023-02-26T11:25:13;16.60;39.70
9446;DHT22;4761;49.490;10.908;2023-02-26T11:27:42;16.50;39.70
9446;DHT22;4761;49.490;10.908;2023-02-26T11:30:19;16.50;39.60
9446;DHT22;4761;49.490;10.908;2023-02-26T11:32:49;16.50;39.50
9446;DHT22;4761;49.490;10.908;2023-02-26T11:35:17;16.50;39.50
9446;DHT22;4761;49.490;10.908;2023-02-26T11:37:53;16.50;39.50
9446;DHT22;4761;49.490;10.908;2023-02-26T11:40:33;16.50;39.50
9446;DHT22;4761;49.490;10.908;2023-02-26T11:43:03;16.50;39.40
9446;DHT22;4761;49.490;10.908;2023-02-26T11:45:29;16.60;39.40
9446;DHT22;4761;49.490;10.908;2023-02-26T11:48:00;16.60;39.30
9446;DHT22;4761;49.490;10.908;2023-02-26T11:50:28;16.60;39.20
9446;DHT22;4761;49.490;10.908;2023-02-26T11:53:03;16.60;39.20
9446;DHT22;4761;49.490;10.908;2023-02-26T11:55:33;16.60;39.10
9446;DHT22;4761;49.490;10.908;2023-02-26T11:58:00;16.60;39.20
9446;DHT22;4761;49.490;10.908;2023-02-26T12:00:31;16.60;39.10
9446;DHT22;4761;49.490;10.908;2023-02-26T12:03:05;16.60;39.10
9446;DHT22;4761;49.490;10.908;2023-02-26T12:05:33;16.60;39.00
9446;DHT22;4761;49.490;10.908;2023-02-26T12:08:02;16.60;39.00
9446;DHT22;4761;49.490;10.908;2023-02-26T12:11:10;16.70;38.90
9446;DHT22;4761;49.490;10.908;2023-02-26T12:16:54;16.60;38.90
9446;DHT22;4761;49.490;10.908;2023-02-26T12:19:45;16.60;38.80
9446;DHT22;4761;49.490;10.908;2023-02-26T12:22:20;16.60;38.80
9446;DHT22;4761;49.490;10.908;2023-02-26T12:27:54;16.60;38.90
9446;DHT22;4761;49.490;10.908;2023-02-26T12:30:38;16.60;38.80
9446;DHT22;4761;49.490;10.908;2023-02-26T12:33:46;16.60;38.80
9446;DHT22;4761;49.490;10.908;2023-02-26T12:42:04;16.70;38.60
9446;DHT22;4761;49.490;10.908;2023-02-26T12:56:37;16.60;38.60
9446;DHT22;4761;49.490;10.908;2023-02-26T13:02:04;16.60;38.50
9446;DHT22;4761;49.490;10.908;2023-02-26T13:04:55;16.60;38.60
9446;DHT22;4761;49.490;10.908;2023-02-26T13:10:18;16.50;38.60
9446;DHT22;4761;49.490;10.908;2023-02-26T13:13:05;16.50;38.60
9446;DHT22;4761;49.490;10.908;2023-02-26T13:16:03;16.50;38.60
9446;DHT22;4761;49.490;10.908;2023-02-26T13:19:10;16.50;38.60
9446;DHT22;4761;49.490;10.908;2023-02-26T13:21:47;16.50;38.60
9446;DHT22;4761;49.490;10.908;2023-02-26T13:27:01;16.50;38.50
9446;DHT22;4761;49.490;10.908;2023-02-26T13:29:33;16.50;38.50
9446;DHT22;4761;49.490;10.908;2023-02-26T13:32:13;16.50;38.50
9446;DHT22;4761;49.490;10.908;2023-02-26T13:34:46;16.50;38.40
9446;DHT22;4761;49.490;10.908;2023-02-26T13:37:24;16.60;36.90
9446;DHT22;4761;49.490;10.908;2023-02-26T13:43:00;16.20;27.40
9446;DHT22;4761;49.490;10.908;2023-02-26T13:45:41;16.20;26.60
9446;DHT22;4761;49.490;10.908;2023-02-26T13:48:24;16.30;25.70
9446;DHT22;4761;49.490;10.908;2023-02-26T13:50:56;16.30;25.20
9446;DHT22;4761;49.490;10.908;2023-02-26T13:53:37;16.40;24.70
9446;DHT22;4761;49.490;10.908;2023-02-26T13:59:04;16.60;24.00
9446;DHT22;4761;49.490;10.908;2023-02-26T14:01:34;16.60;23.60
9446;DHT22;4761;49.490;10.908;2023-02-26T14:07:12;16.80;23.70
9446;DHT22;4761;49.490;10.908;2023-02-26T14:12:24;16.90;23.60
9446;DHT22;4761;49.490;10.908;2023-02-26T14:17:39;17.10;23.40
9446;DHT22;4761;49.490;10.908;2023-02-26T14:25:38;17.20;22.40
9446;DHT22;4761;49.490;10.908;2023-02-26T14:30:51;17.30;22.30
9446;DHT22;4761;49.490;10.908;2023-02-26T14:33:18;17.30;22.50
9446;DHT22;4761;49.490;10.908;2023-02-26T14:35:51;17.40;22.40
9446;DHT22;4761;49.490;10.908;2023-02-26T14:38:24;17.40;22.30
9446;DHT22;4761;49.490;10.908;2023-02-26T14:41:00;17.40;22.00
9446;DHT22;4761;49.490;10.908;2023-02-26T14:43:30;17.50;21.70
9446;DHT22;4761;49.490;10.908;2023-02-26T14:46:00;17.50;21.60
9446;DHT22;4761;49.490;10.908;2023-02-26T14:48:26;17.50;21.40
9446;DHT22;4761;49.490;10.908;2023-02-26T14:56:29;17.50;21.90
9446;DHT22;4761;49.490;10.908;2023-02-26T15:02:25;17.50;21.30
9446;DHT22;4761;49.490;10.908;2023-02-26T15:05:13;17.60;34.00
9446;DHT22;4761;49.490;10.908;2023-02-26T15:16:23;17.40;35.50
9446;DHT22;4761;49.490;10.908;2023-02-26T15:18:59;17.30;35.70
9446;DHT22;4761;49.490;10.908;2023-02-26T15:24:03;17.10;36.80
9446;DHT22;4761;49.490;10.908;2023-02-26T15:26:34;17.00;36.90
9446;DHT22;4761;49.490;10.908;2023-02-26T15:29:05;16.90;37.00
9446;DHT22;4761;49.490;10.908;2023-02-26T15:31:43;16.90;37.00
9446;DHT22;4761;49.490;10.908;2023-02-26T15:34:14;16.90;37.20
9446;DHT22;4761;49.490;10.908;2023-02-26T15:36:44;16.80;37.10
9446;DHT22;4761;49.490;10.908;2023-02-26T15:39:11;16.80;37.20
9446;DHT22;4761;49.490;10.908;2023-02-26T15:41:37;16.80;37.30
9446;DHT22;4761;49.490;10.908;2023-02-26T15:44:09;16.80;37.40
9446;DHT22;4761;49.490;10.908;2023-02-26T15:46:40;16.70;37.20
9446;DHT22;4761;49.490;10.908;2023-02-26T15:49:10;16.70;37.30
9446;DHT22;4761;49.490;10.908;2023-02-26T15:51:37;16.70;37.30
9446;DHT22;4761;49.490;10.908;2023-02-26T15:54:03;16.70;37.40
9446;DHT22;4761;49.490;10.908;2023-02-26T15:56:33;16.70;37.50
9446;DHT22;4761;49.490;10.908;2023-02-26T15:59:11;16.70;37.50
9446;DHT22;4761;49.490;10.908;2023-02-26T16:01:39;16.70;37.40
9446;DHT22;4761;49.490;10.908;2023-02-26T16:04:12;16.70;37.50
9446;DHT22;4761;49.490;10.908;2023-02-26T16:06:47;16.70;37.40
9446;DHT22;4761;49.490;10.908;2023-02-26T16:09:18;16.60;37.40
9446;DHT22;4761;49.490;10.908;2023-02-26T16:11:45;16.60;37.50
9446;DHT22;4761;49.490;10.908;2023-02-26T16:14:18;16.60;37.60
9446;DHT22;4761;49.490;10.908;2023-02-26T16:16:48;16.60;37.50
9446;DHT22;4761;49.490;10.908;2023-02-26T16:19:16;16.50;37.30
9446;DHT22;4761;49.490;10.908;2023-02-26T16:21:43;16.50;37.20
9446;DHT22;4761;49.490;10.908;2023-02-26T16:24:15;16.60;37.40
9446;DHT22;4761;49.490;10.908;2023-02-26T16:26:49;16.50;37.10
9446;DHT22;4761;49.490;10.908;2023-02-26T16:29:28;16.50;37.10
9446;DHT22;4761;49.490;10.908;2023-02-26T16:31:56;16.50;37.10
9446;DHT22;4761;49.490;10.908;2023-02-26T16:34:47;16.50;37.10
9446;DHT22;4761;49.490;10.908;2023-02-26T16:39:57;16.50;37.00
9446;DHT22;4761;49.490;10.908;2023-02-26T16:48:14;16.50;37.10
9446;DHT22;4761;49.490;10.908;2023-02-26T16:50:41;16.50;37.10
9446;DHT22;4761;49.490;10.908;2023-02-26T16:53:18;16.50;37.10
9446;DHT22;4761;49.490;10.908;2023-02-26T16:55:51;16.40;37.00
9446;DHT22;4761;49.490;10.908;2023-02-26T16:58:19;16.40;36.80
9446;DHT22;4761;49.490;10.908;2023-02-26T17:01:02;16.40;36.90
9446;DHT22;4761;49.490;10.908;2023-02-26T17:03:29;16.40;36.80
9446;DHT22;4761;49.490;10.908;2023-02-26T17:05:59;16.40;36.80
9446;DHT22;4761;49.490;10.908;2023-02-26T17:08:41;16.40;36.70
9446;DHT22;4761;49.490;10.908;2023-02-26T17:14:14;16.40;36.70
9446;DHT22;4761;49.490;10.908;2023-02-26T17:16:44;16.40;36.80
9446;DHT22;4761;49.490;10.908;2023-02-26T17:19:09;16.40;36.70
9446;DHT22;4761;49.490;10.908;2023-02-26T17:21:41;16.40;36.80
9446;DHT22;4761;49.490;10.908;2023-02-26T17:24:12;16.30;36.70
9446;DHT22;4761;49.490;10.908;2023-02-26T17:26:39;16.40;36.70
9446;DHT22;4761;49.490;10.908;2023-02-26T17:29:05;16.30;36.70
9446;DHT22;4761;49.490;10.908;2023-02-26T17:31:30;16.40;36.80
9446;DHT22;4761;49.490;10.908;2023-02-26T17:33:56;16.40;36.80
9446;DHT22;4761;49.490;10.908;2023-02-26T17:36:21;16.40;36.80
9446;DHT22;4761;49.490;10.908;2023-02-26T17:38:47;16.40;36.70
9446;DHT22;4761;49.490;10.908;2023-02-26T17:41:16;16.40;36.80
9446;DHT22;4761;49.490;10.908;2023-02-26T17:43:42;16.40;36.80
9446;DHT22;4761;49.490;10.908;2023-02-26T17:46:09;16.40;36.80
9446;DHT22;4761;49.490;10.908;2023-02-26T17:48:36;16.40;36.80
9446;DHT22;4761;49.490;10.908;2023-02-26T17:51:02;16.40;36.80
9446;DHT22;4761;49.490;10.908;2023-02-26T17:53:27;16.40;36.80
9446;DHT22;4761;49.490;10.908;2023-02-26T17:55:57;16.40;36.90
9446;DHT22;4761;49.490;10.908;2023-02-26T17:58:29;16.40;36.90
9446;DHT22;4761;49.490;10.908;2023-02-26T18:00:56;16.40;36.80
9446;DHT22;4761;49.490;10.908;2023-02-26T18:03:22;16.30;36.80
9446;DHT22;4761;49.490;10.908;2023-02-26T18:05:48;16.40;37.00
9446;DHT22;4761;49.490;10.908;2023-02-26T18:08:22;16.40;37.00
9446;DHT22;4761;49.490;10.908;2023-02-26T18:10:48;16.40;36.80
9446;DHT22;4761;49.490;10.908;2023-02-26T18:13:14;16.50;36.80
9446;DHT22;4761;49.490;10.908;2023-02-26T18:15:40;16.50;36.80
9446;DHT22;4761;49.490;10.908;2023-02-26T18:18:08;16.60;36.90
9446;DHT22;4761;49.490;10.908;2023-02-26T18:20:34;16.50;36.70
9446;DHT22;4761;49.490;10.908;2023-02-26T18:22:59;16.60;36.70
9446;DHT22;4761;49.490;10.908;2023-02-26T18:25:25;16.60;36.60
9446;DHT22;4761;49.490;10.908;2023-02-26T18:27:54;16.60;36.50
9446;DHT22;4761;49.490;10.908;2023-02-26T18:30:27;16.60;36.40
9446;DHT22;4761;49.490;10.908;2023-02-26T18:32:54;16.50;36.30
9446;DHT22;4761;49.490;10.908;2023-02-26T18:35:20;16.50;36.40
9446;DHT22;4761;49.490;10.908;2023-02-26T18:37:46;16.60;36.50
9446;DHT22;4761;49.490;10.908;2023-02-26T18:40:16;16.50;36.40
9446;DHT22;4761;49.490;10.908;2023-02-26T18:42:42;16.50;36.30